sensor_id;sensor_type;location;lat;lon;timestamp;P1;durP1;ratioP1;P2;durP2;ratioP2
177;SDS011;77;48.792;9.032;2024-03-29T00:01:05;3.15;;;2.05;;
177;SDS011;77;48.792;9.032;2024-03-29T00:03:30;3.23;;;2.00;;
177;SDS011;77;48.792;9.032;2024-03-29T00:05:55;3.75;;;2.10;;
177;SDS011;77;48.792;9.032;2024-03-29T00:08:21;2.80;;;2.00;;
177;SDS011;77;48.792;9.032;2024-03-29T00:10:47;2.58;;;1.90;;
177;SDS011;77;48.792;9.032;2024-03-29T00:13:12;2.87;;;2.13;;
177;SDS011;77;48.792;9.032;2024-03-29T00:15:38;11.17;;;2.20;;
177;SDS011;77;48.792;9.032;2024-03-29T00:18:03;3.53;;;2.00;;
177;SDS011;77;48.792;9.032;2024-03-29T00:20:28;3.70;;;2.30;;
177;SDS011;77;48.792;9.032;2024-03-29T00:22:53;4.83;;;2.13;;
177;SDS011;77;48.792;9.032;2024-03-29T00:25:18;6.07;;;2.40;;
177;SDS011;77;48.792;9.032;2024-03-29T00:27:45;3.00;;;2.10;;
177;SDS011;77;48.792;9.032;2024-03-29T00:30:10;3.40;;;2.13;;
177;SDS011;77;48.792;9.032;2024-03-29T00:32:35;4.50;;;2.00;;
177;SDS011;77;48.792;9.032;2024-03-29T00:35:00;2.93;;;2.07;;
177;SDS011;77;48.792;9.032;2024-03-29T00:37:25;3.05;;;2.10;;
177;SDS011;77;48.792;9.032;2024-03-29T00:39:51;3.35;;;2.10;;
177;SDS011;77;48.792;9.032;2024-03-29T00:42:16;3.83;;;2.07;;
177;SDS011;77;48.792;9.032;2024-03-29T00:44:42;2.60;;;1.90;;
177;SDS011;77;48.792;9.032;2024-03-29T00:47:08;2.90;;;2.00;;
177;SDS011;77;48.792;9.032;2024-03-29T00:49:33;3.73;;;2.00;;
177;SDS011;77;48.792;9.032;2024-03-29T00:51:58;3.77;;;2.20;;
177;SDS011;77;48.792;9.032;2024-03-29T00:54:24;2.50;;;2.10;;
177;SDS011;77;48.792;9.032;2024-03-29T00:56:49;5.40;;;2.00;;
177;SDS011;77;48.792;9.032;2024-03-29T00:59:14;2.80;;;2.00;;
177;SDS011;77;48.792;9.032;2024-03-29T01:01:40;4.57;;;2.05;;
177;SDS011;77;48.792;9.032;2024-03-29T01:04:06;2.70;;;2.10;;
177;SDS011;77;48.792;9.032;2024-03-29T01:06:31;2.27;;;1.90;;
177;SDS011;77;48.792;9.032;2024-03-29T01:08:56;3.13;;;2.00;;
177;SDS011;77;48.792;9.032;2024-03-29T01:11:21;2.23;;;1.90;;
177;SDS011;77;48.792;9.032;2024-03-29T01:13:46;2.17;;;1.80;;
177;SDS011;77;48.792;9.032;2024-03-29T01:16:11;2.47;;;1.90;;
177;SDS011;77;48.792;9.032;2024-03-29T01:18:38;4.30;;;2.13;;
177;SDS011;77;48.792;9.032;2024-03-29T01:21:03;2.40;;;2.07;;
177;SDS011;77;48.792;9.032;2024-03-29T01:23:28;2.60;;;1.90;;
177;SDS011;77;48.792;9.032;2024-03-29T01:25:53;3.90;;;1.90;;
177;SDS011;77;48.792;9.032;2024-03-29T01:28:18;2.70;;;2.00;;
177;SDS011;77;48.792;9.032;2024-03-29T01:30:43;2.58;;;1.73;;
177;SDS011;77;48.792;9.032;2024-03-29T01:33:15;2.63;;;1.80;;
177;SDS011;77;48.792;9.032;2024-03-29T01:35:42;2.33;;;1.90;;
177;SDS011;77;48.792;9.032;2024-03-29T01:38:07;3.67;;;2.00;;
177;SDS011;77;48.792;9.032;2024-03-29T01:40:32;3.03;;;1.80;;
177;SDS011;77;48.792;9.032;2024-03-29T01:42:57;2.47;;;1.87;;
177;SDS011;77;48.792;9.032;2024-03-29T01:45:22;2.65;;;1.90;;
177;SDS011;77;48.792;9.032;2024-03-29T01:47:48;2.50;;;1.90;;
177;SDS011;77;48.792;9.032;2024-03-29T01:50:13;2.57;;;1.90;;
177;SDS011;77;48.792;9.032;2024-03-29T01:52:39;2.77;;;1.77;;
177;SDS011;77;48.792;9.032;2024-03-29T01:55:05;3.30;;;1.80;;
177;SDS011;77;48.792;9.032;2024-03-29T01:57:30;2.43;;;2.03;;
177;SDS011;77;48.792;9.032;2024-03-29T01:59:56;2.17;;;1.80;;
177;SDS011;77;48.792;9.032;2024-03-29T02:02:21;2.80;;;1.90;;
177;SDS011;77;48.792;9.032;2024-03-29T02:04:47;2.43;;;1.70;;
177;SDS011;77;48.792;9.032;2024-03-29T02:07:12;3.00;;;2.00;;
177;SDS011;77;48.792;9.032;2024-03-29T02:09:39;2.40;;;1.90;;
177;SDS011;77;48.792;9.032;2024-03-29T02:12:04;2.10;;;1.80;;
177;SDS011;77;48.792;9.032;2024-03-29T02:14:29;5.20;;;1.80;;
177;SDS011;77;48.792;9.032;2024-03-29T02:16:55;4.70;;;1.80;;
177;SDS011;77;48.792;9.032;2024-03-29T02:19:20;2.55;;;1.70;;
177;SDS011;77;48.792;9.032;2024-03-29T02:21:45;2.70;;;2.00;;
177;SDS011;77;48.792;9.032;2024-03-29T02:24:14;2.13;;;1.73;;
177;SDS011;77;48.792;9.032;2024-03-29T02:26:39;2.23;;;1.77;;
177;SDS011;77;48.792;9.032;2024-03-29T02:29:04;2.50;;;1.80;;
177;SDS011;77;48.792;9.032;2024-03-29T02:31:29;2.95;;;1.80;;
177;SDS011;77;48.792;9.032;2024-03-29T02:33:55;2.27;;;1.80;;
177;SDS011;77;48.792;9.032;2024-03-29T02:36:20;2.00;;;1.70;;
177;SDS011;77;48.792;9.032;2024-03-29T02:38:45;4.07;;;1.80;;
177;SDS011;77;48.792;9.032;2024-03-29T02:41:11;2.67;;;1.80;;
177;SDS011;77;48.792;9.032;2024-03-29T02:43:37;2.20;;;1.70;;
177;SDS011;77;48.792;9.032;2024-03-29T02:46:02;2.90;;;1.90;;
177;SDS011;77;48.792;9.032;2024-03-29T02:48:27;2.80;;;1.80;;
177;SDS011;77;48.792;9.032;2024-03-29T02:50:52;2.33;;;1.90;;
177;SDS011;77;48.792;9.032;2024-03-29T02:53:17;2.40;;;1.70;;
177;SDS011;77;48.792;9.032;2024-03-29T02:55:42;3.17;;;2.00;;
177;SDS011;77;48.792;9.032;2024-03-29T02:58:09;5.53;;;1.70;;
177;SDS011;77;48.792;9.032;2024-03-29T03:00:34;4.27;;;1.97;;
177;SDS011;77;48.792;9.032;2024-03-29T03:02:59;2.78;;;1.70;;
177;SDS011;77;48.792;9.032;2024-03-29T03:05:24;2.83;;;2.00;;
177;SDS011;77;48.792;9.032;2024-03-29T03:07:50;2.20;;;1.80;;
177;SDS011;77;48.792;9.032;2024-03-29T03:10:15;2.83;;;1.90;;
177;SDS011;77;48.792;9.032;2024-03-29T03:12:40;3.20;;;1.70;;
177;SDS011;77;48.792;9.032;2024-03-29T03:15:07;2.87;;;1.97;;
177;SDS011;77;48.792;9.032;2024-03-29T03:17:32;2.00;;;1.70;;
177;SDS011;77;48.792;9.032;2024-03-29T03:19:57;2.60;;;1.73;;
177;SDS011;77;48.792;9.032;2024-03-29T03:22:23;2.07;;;1.70;;
177;SDS011;77;48.792;9.032;2024-03-29T03:24:48;2.53;;;1.60;;
177;SDS011;77;48.792;9.032;2024-03-29T03:27:13;3.53;;;1.60;;
177;SDS011;77;48.792;9.032;2024-03-29T03:29:38;2.70;;;1.90;;
177;SDS011;77;48.792;9.032;2024-03-29T03:32:06;2.20;;;1.80;;
177;SDS011;77;48.792;9.032;2024-03-29T03:34:31;3.40;;;1.77;;
177;SDS011;77;48.792;9.032;2024-03-29T03:36:56;6.07;;;1.90;;
177;SDS011;77;48.792;9.032;2024-03-29T03:39:21;2.60;;;1.90;;
177;SDS011;77;48.792;9.032;2024-03-29T03:41:46;3.20;;;1.90;;
177;SDS011;77;48.792;9.032;2024-03-29T03:44:12;2.40;;;1.90;;
177;SDS011;77;48.792;9.032;2024-03-29T03:46:37;2.38;;;1.75;;
177;SDS011;77;48.792;9.032;2024-03-29T03:49:03;2.97;;;1.88;;
177;SDS011;77;48.792;9.032;2024-03-29T03:51:28;2.67;;;1.80;;
177;SDS011;77;48.792;9.032;2024-03-29T03:53:54;2.23;;;1.70;;
177;SDS011;77;48.792;9.032;2024-03-29T03:56:19;1.90;;;1.70;;
177;SDS011;77;48.792;9.032;2024-03-29T03:58:44;2.27;;;1.67;;
177;SDS011;77;48.792;9.032;2024-03-29T04:01:09;2.03;;;1.53;;
177;SDS011;77;48.792;9.032;2024-03-29T04:03:34;2.00;;;1.70;;
177;SDS011;77;48.792;9.032;2024-03-29T04:06:03;3.40;;;1.80;;
177;SDS011;77;48.792;9.032;2024-03-29T04:08:29;2.10;;;1.70;;
177;SDS011;77;48.792;9.032;2024-03-29T04:10:54;1.90;;;1.60;;
177;SDS011;77;48.792;9.032;2024-03-29T04:13:19;5.53;;;1.80;;
177;SDS011;77;48.792;9.032;2024-03-29T04:15:44;2.88;;;1.63;;
177;SDS011;77;48.792;9.032;2024-03-29T04:18:09;3.40;;;1.80;;
177;SDS011;77;48.792;9.032;2024-03-29T04:20:34;3.20;;;1.70;;
177;SDS011;77;48.792;9.032;2024-03-29T04:23:03;1.90;;;1.60;;
177;SDS011;77;48.792;9.032;2024-03-29T04:25:28;2.87;;;2.00;;
177;SDS011;77;48.792;9.032;2024-03-29T04:27:53;2.47;;;1.80;;
177;SDS011;77;48.792;9.032;2024-03-29T04:30:18;2.25;;;1.60;;
177;SDS011;77;48.792;9.032;2024-03-29T04:32:44;2.40;;;1.90;;
177;SDS011;77;48.792;9.032;2024-03-29T04:35:09;2.03;;;1.73;;
177;SDS011;77;48.792;9.032;2024-03-29T04:37:34;2.30;;;1.67;;
177;SDS011;77;48.792;9.032;2024-03-29T04:40:00;2.70;;;1.90;;
177;SDS011;77;48.792;9.032;2024-03-29T04:42:25;2.93;;;2.10;;
177;SDS011;77;48.792;9.032;2024-03-29T04:44:51;2.73;;;2.00;;
177;SDS011;77;48.792;9.032;2024-03-29T04:47:16;3.15;;;1.70;;
177;SDS011;77;48.792;9.032;2024-03-29T04:49:41;3.40;;;1.90;;
177;SDS011;77;48.792;9.032;2024-03-29T04:52:06;3.35;;;2.00;;
177;SDS011;77;48.792;9.032;2024-03-29T04:54:31;2.45;;;1.92;;
177;SDS011;77;48.792;9.032;2024-03-29T04:56:58;2.80;;;1.77;;
177;SDS011;77;48.792;9.032;2024-03-29T04:59:23;2.33;;;1.80;;
177;SDS011;77;48.792;9.032;2024-03-29T05:01:48;2.67;;;1.80;;
177;SDS011;77;48.792;9.032;2024-03-29T05:04:13;3.00;;;2.20;;
177;SDS011;77;48.792;9.032;2024-03-29T05:06:38;3.63;;;2.10;;
177;SDS011;77;48.792;9.032;2024-03-29T05:09:03;2.35;;;1.77;;
177;SDS011;77;48.792;9.032;2024-03-29T05:11:29;4.57;;;2.30;;
177;SDS011;77;48.792;9.032;2024-03-29T05:13:55;2.93;;;2.00;;
177;SDS011;77;48.792;9.032;2024-03-29T05:16:20;2.73;;;2.10;;
177;SDS011;77;48.792;9.032;2024-03-29T05:18:45;2.20;;;1.83;;
177;SDS011;77;48.792;9.032;2024-03-29T05:21:10;2.67;;;1.90;;
177;SDS011;77;48.792;9.032;2024-03-29T05:23:36;2.20;;;1.70;;
177;SDS011;77;48.792;9.032;2024-03-29T05:26:01;1.73;;;1.60;;
177;SDS011;77;48.792;9.032;2024-03-29T05:28:26;2.07;;;1.70;;
177;SDS011;77;48.792;9.032;2024-03-29T05:30:52;2.25;;;1.73;;
177;SDS011;77;48.792;9.032;2024-03-29T05:33:17;2.20;;;1.53;;
177;SDS011;77;48.792;9.032;2024-03-29T05:35:43;2.57;;;1.80;;
177;SDS011;77;48.792;9.032;2024-03-29T05:38:08;2.20;;;1.77;;
177;SDS011;77;48.792;9.032;2024-03-29T05:40:33;2.70;;;1.80;;
177;SDS011;77;48.792;9.032;2024-03-29T05:42:58;2.92;;;1.88;;
177;SDS011;77;48.792;9.032;2024-03-29T05:45:24;2.10;;;1.70;;
177;SDS011;77;48.792;9.032;2024-03-29T05:47:50;2.20;;;1.80;;
177;SDS011;77;48.792;9.032;2024-03-29T05:50:16;2.87;;;1.90;;
177;SDS011;77;48.792;9.032;2024-03-29T05:52:41;2.00;;;1.70;;
177;SDS011;77;48.792;9.032;2024-03-29T05:55:06;2.38;;;1.83;;
177;SDS011;77;48.792;9.032;2024-03-29T05:57:31;2.60;;;1.90;;
177;SDS011;77;48.792;9.032;2024-03-29T05:59:56;3.15;;;1.60;;
177;SDS011;77;48.792;9.032;2024-03-29T06:02:22;3.78;;;1.90;;
177;SDS011;77;48.792;9.032;2024-03-29T06:04:48;2.55;;;1.90;;
177;SDS011;77;48.792;9.032;2024-03-29T06:07:13;2.70;;;2.00;;
177;SDS011;77;48.792;9.032;2024-03-29T06:09:38;2.20;;;1.80;;
177;SDS011;77;48.792;9.032;2024-03-29T06:12:04;3.63;;;2.00;;
177;SDS011;77;48.792;9.032;2024-03-29T06:14:29;2.60;;;1.80;;
177;SDS011;77;48.792;9.032;2024-03-29T06:16:54;2.47;;;1.80;;
177;SDS011;77;48.792;9.032;2024-03-29T06:19:19;3.85;;;2.15;;
177;SDS011;77;48.792;9.032;2024-03-29T06:21:46;2.85;;;2.20;;
177;SDS011;77;48.792;9.032;2024-03-29T06:24:11;2.33;;;1.80;;
177;SDS011;77;48.792;9.032;2024-03-29T06:26:37;2.77;;;2.00;;
177;SDS011;77;48.792;9.032;2024-03-29T06:29:02;4.05;;;2.15;;
177;SDS011;77;48.792;9.032;2024-03-29T06:31:27;3.57;;;2.20;;
177;SDS011;77;48.792;9.032;2024-03-29T06:33:53;2.70;;;2.03;;
177;SDS011;77;48.792;9.032;2024-03-29T06:36:18;3.30;;;2.23;;
177;SDS011;77;48.792;9.032;2024-03-29T06:38:45;2.60;;;2.00;;
177;SDS011;77;48.792;9.032;2024-03-29T06:41:10;2.53;;;1.90;;
177;SDS011;77;48.792;9.032;2024-03-29T06:43:35;2.90;;;2.10;;
177;SDS011;77;48.792;9.032;2024-03-29T06:46:00;3.05;;;2.30;;
177;SDS011;77;48.792;9.032;2024-03-29T06:48:26;2.60;;;1.98;;
177;SDS011;77;48.792;9.032;2024-03-29T06:50:51;4.60;;;2.10;;
177;SDS011;77;48.792;9.032;2024-03-29T06:53:16;3.30;;;2.17;;
177;SDS011;77;48.792;9.032;2024-03-29T06:55:42;2.60;;;2.10;;
177;SDS011;77;48.792;9.032;2024-03-29T06:58:08;3.00;;;2.07;;
177;SDS011;77;48.792;9.032;2024-03-29T07:00:33;2.60;;;1.90;;
177;SDS011;77;48.792;9.032;2024-03-29T07:02:58;3.38;;;2.10;;
177;SDS011;77;48.792;9.032;2024-03-29T07:05:23;2.80;;;2.20;;
177;SDS011;77;48.792;9.032;2024-03-29T07:07:48;3.90;;;2.30;;
177;SDS011;77;48.792;9.032;2024-03-29T07:10:13;3.77;;;2.00;;
177;SDS011;77;48.792;9.032;2024-03-29T07:12:40;3.67;;;2.20;;
177;SDS011;77;48.792;9.032;2024-03-29T07:15:05;3.53;;;2.13;;
177;SDS011;77;48.792;9.032;2024-03-29T07:17:31;3.37;;;1.90;;
177;SDS011;77;48.792;9.032;2024-03-29T07:19:56;3.72;;;2.03;;
177;SDS011;77;48.792;9.032;2024-03-29T07:22:21;2.30;;;1.80;;
177;SDS011;77;48.792;9.032;2024-03-29T07:24:46;2.70;;;1.97;;
177;SDS011;77;48.792;9.032;2024-03-29T07:27:11;4.00;;;2.17;;
177;SDS011;77;48.792;9.032;2024-03-29T07:29:38;5.60;;;2.00;;
177;SDS011;77;48.792;9.032;2024-03-29T07:32:03;2.90;;;2.00;;
177;SDS011;77;48.792;9.032;2024-03-29T07:34:28;2.83;;;2.10;;
177;SDS011;77;48.792;9.032;2024-03-29T07:36:54;3.50;;;2.20;;
177;SDS011;77;48.792;9.032;2024-03-29T07:39:19;2.60;;;2.00;;
177;SDS011;77;48.792;9.032;2024-03-29T07:41:45;3.30;;;1.90;;
177;SDS011;77;48.792;9.032;2024-03-29T07:44:10;2.90;;;2.00;;
177;SDS011;77;48.792;9.032;2024-03-29T07:46:36;2.22;;;1.70;;
177;SDS011;77;48.792;9.032;2024-03-29T07:49:02;2.87;;;2.00;;
177;SDS011;77;48.792;9.032;2024-03-29T07:51:27;2.63;;;1.70;;
177;SDS011;77;48.792;9.032;2024-03-29T07:53:52;4.82;;;2.15;;
177;SDS011;77;48.792;9.032;2024-03-29T07:56:17;3.60;;;2.00;;
177;SDS011;77;48.792;9.032;2024-03-29T07:58:42;7.00;;;2.07;;
177;SDS011;77;48.792;9.032;2024-03-29T08:01:07;3.23;;;2.10;;
177;SDS011;77;48.792;9.032;2024-03-29T08:03:34;5.33;;;2.30;;
177;SDS011;77;48.792;9.032;2024-03-29T08:05:59;8.40;;;2.50;;
177;SDS011;77;48.792;9.032;2024-03-29T08:08:24;3.47;;;2.30;;
177;SDS011;77;48.792;9.032;2024-03-29T08:10:50;5.73;;;2.20;;
177;SDS011;77;48.792;9.032;2024-03-29T08:13:15;3.17;;;2.07;;
177;SDS011;77;48.792;9.032;2024-03-29T08:15:40;3.05;;;2.20;;
177;SDS011;77;48.792;9.032;2024-03-29T08:18:05;3.25;;;2.15;;
177;SDS011;77;48.792;9.032;2024-03-29T08:20:32;3.53;;;2.00;;
177;SDS011;77;48.792;9.032;2024-03-29T08:22:57;2.97;;;2.20;;
177;SDS011;77;48.792;9.032;2024-03-29T08:25:22;3.70;;;2.03;;
177;SDS011;77;48.792;9.032;2024-03-29T08:27:47;4.83;;;2.23;;
177;SDS011;77;48.792;9.032;2024-03-29T08:30:13;3.03;;;2.27;;
177;SDS011;77;48.792;9.032;2024-03-29T08:32:38;3.97;;;2.17;;
177;SDS011;77;48.792;9.032;2024-03-29T08:35:03;4.97;;;2.47;;
177;SDS011;77;48.792;9.032;2024-03-29T08:37:30;4.17;;;2.37;;
177;SDS011;77;48.792;9.032;2024-03-29T08:39:55;4.40;;;2.50;;
177;SDS011;77;48.792;9.032;2024-03-29T08:42:20;6.03;;;2.50;;
177;SDS011;77;48.792;9.032;2024-03-29T08:44:45;3.67;;;2.35;;
177;SDS011;77;48.792;9.032;2024-03-29T08:47:10;4.57;;;2.30;;
177;SDS011;77;48.792;9.032;2024-03-29T08:49:35;4.43;;;2.50;;
177;SDS011;77;48.792;9.032;2024-03-29T08:52:01;4.17;;;2.30;;
177;SDS011;77;48.792;9.032;2024-03-29T08:54:27;4.90;;;2.40;;
177;SDS011;77;48.792;9.032;2024-03-29T08:56:52;4.13;;;2.40;;
177;SDS011;77;48.792;9.032;2024-03-29T08:59:17;4.45;;;2.47;;
177;SDS011;77;48.792;9.032;2024-03-29T09:01:44;2.93;;;2.30;;
177;SDS011;77;48.792;9.032;2024-03-29T09:04:10;3.60;;;2.50;;
177;SDS011;77;48.792;9.032;2024-03-29T09:06:35;4.83;;;2.37;;
177;SDS011;77;48.792;9.032;2024-03-29T09:09:00;3.23;;;2.30;;
177;SDS011;77;48.792;9.032;2024-03-29T09:11:26;5.13;;;2.42;;
177;SDS011;77;48.792;9.032;2024-03-29T09:13:52;5.30;;;2.30;;
177;SDS011;77;48.792;9.032;2024-03-29T09:16:17;4.60;;;2.40;;
177;SDS011;77;48.792;9.032;2024-03-29T09:18:42;2.90;;;2.28;;
177;SDS011;77;48.792;9.032;2024-03-29T09:21:07;5.90;;;2.60;;
177;SDS011;77;48.792;9.032;2024-03-29T09:23:32;5.55;;;2.67;;
177;SDS011;77;48.792;9.032;2024-03-29T09:25:57;3.70;;;2.50;;
177;SDS011;77;48.792;9.032;2024-03-29T09:28:24;5.20;;;3.05;;
177;SDS011;77;48.792;9.032;2024-03-29T09:30:49;3.53;;;2.57;;
177;SDS011;77;48.792;9.032;2024-03-29T09:33:14;6.80;;;3.30;;
177;SDS011;77;48.792;9.032;2024-03-29T09:35:39;6.53;;;3.13;;
177;SDS011;77;48.792;9.032;2024-03-29T09:38:05;6.10;;;3.00;;
177;SDS011;77;48.792;9.032;2024-03-29T09:40:30;3.97;;;2.57;;
177;SDS011;77;48.792;9.032;2024-03-29T09:42:55;4.13;;;3.00;;
177;SDS011;77;48.792;9.032;2024-03-29T09:45:22;5.20;;;2.77;;
177;SDS011;77;48.792;9.032;2024-03-29T09:47:48;5.00;;;2.90;;
177;SDS011;77;48.792;9.032;2024-03-29T09:50:14;4.10;;;2.70;;
177;SDS011;77;48.792;9.032;2024-03-29T09:52:39;4.13;;;2.30;;
177;SDS011;77;48.792;9.032;2024-03-29T09:55:04;3.50;;;2.60;;
177;SDS011;77;48.792;9.032;2024-03-29T09:57:31;5.23;;;2.90;;
177;SDS011;77;48.792;9.032;2024-03-29T09:59:56;4.10;;;2.57;;
177;SDS011;77;48.792;9.032;2024-03-29T10:02:24;3.83;;;2.40;;
177;SDS011;77;48.792;9.032;2024-03-29T10:04:50;4.73;;;2.43;;
177;SDS011;77;48.792;9.032;2024-03-29T10:07:16;3.70;;;2.43;;
177;SDS011;77;48.792;9.032;2024-03-29T10:09:42;5.60;;;2.63;;
177;SDS011;77;48.792;9.032;2024-03-29T10:12:08;3.70;;;2.40;;
177;SDS011;77;48.792;9.032;2024-03-29T10:14:42;4.00;;;2.43;;
177;SDS011;77;48.792;9.032;2024-03-29T10:17:08;3.70;;;2.50;;
177;SDS011;77;48.792;9.032;2024-03-29T10:19:34;6.90;;;2.67;;
177;SDS011;77;48.792;9.032;2024-03-29T10:22:05;3.87;;;2.67;;
177;SDS011;77;48.792;9.032;2024-03-29T10:24:30;4.50;;;2.60;;
177;SDS011;77;48.792;9.032;2024-03-29T10:26:58;3.70;;;2.30;;
177;SDS011;77;48.792;9.032;2024-03-29T10:29:27;3.43;;;2.30;;
177;SDS011;77;48.792;9.032;2024-03-29T10:31:52;5.53;;;2.37;;
177;SDS011;77;48.792;9.032;2024-03-29T10:34:17;4.23;;;2.37;;
177;SDS011;77;48.792;9.032;2024-03-29T10:36:44;2.57;;;1.87;;
177;SDS011;77;48.792;9.032;2024-03-29T10:39:11;3.90;;;2.20;;
177;SDS011;77;48.792;9.032;2024-03-29T10:41:37;5.13;;;2.20;;
177;SDS011;77;48.792;9.032;2024-03-29T10:44:03;3.37;;;2.10;;
177;SDS011;77;48.792;9.032;2024-03-29T10:46:29;3.97;;;2.77;;
177;SDS011;77;48.792;9.032;2024-03-29T10:48:54;6.00;;;3.00;;
177;SDS011;77;48.792;9.032;2024-03-29T10:51:19;5.20;;;2.67;;
177;SDS011;77;48.792;9.032;2024-03-29T10:53:46;4.40;;;2.93;;
177;SDS011;77;48.792;9.032;2024-03-29T10:56:12;4.40;;;2.90;;
177;SDS011;77;48.792;9.032;2024-03-29T10:58:39;3.70;;;2.80;;
177;SDS011;77;48.792;9.032;2024-03-29T11:01:05;4.03;;;2.60;;
177;SDS011;77;48.792;9.032;2024-03-29T11:03:32;5.20;;;2.83;;
177;SDS011;77;48.792;9.032;2024-03-29T11:05:59;4.33;;;3.20;;
177;SDS011;77;48.792;9.032;2024-03-29T11:08:27;4.40;;;2.77;;
177;SDS011;77;48.792;9.032;2024-03-29T11:10:54;3.57;;;2.30;;
177;SDS011;77;48.792;9.032;2024-03-29T11:13:23;3.40;;;2.30;;
177;SDS011;77;48.792;9.032;2024-03-29T11:15:50;3.40;;;2.13;;
177;SDS011;77;48.792;9.032;2024-03-29T11:18:15;3.93;;;1.93;;
177;SDS011;77;48.792;9.032;2024-03-29T11:20:40;3.93;;;2.10;;
177;SDS011;77;48.792;9.032;2024-03-29T11:23:06;3.20;;;1.90;;
177;SDS011;77;48.792;9.032;2024-03-29T11:25:39;4.43;;;1.93;;
177;SDS011;77;48.792;9.032;2024-03-29T11:28:05;3.93;;;2.00;;
177;SDS011;77;48.792;9.032;2024-03-29T11:30:31;2.03;;;1.63;;
177;SDS011;77;48.792;9.032;2024-03-29T11:32:57;4.23;;;2.07;;
177;SDS011;77;48.792;9.032;2024-03-29T11:35:22;2.97;;;2.10;;
177;SDS011;77;48.792;9.032;2024-03-29T11:37:54;4.10;;;2.00;;
177;SDS011;77;48.792;9.032;2024-03-29T11:40:20;3.20;;;1.70;;
177;SDS011;77;48.792;9.032;2024-03-29T11:42:46;3.37;;;2.00;;
177;SDS011;77;48.792;9.032;2024-03-29T11:45:13;2.60;;;1.80;;
177;SDS011;77;48.792;9.032;2024-03-29T11:47:38;2.70;;;2.00;;
177;SDS011;77;48.792;9.032;2024-03-29T11:50:04;3.33;;;2.20;;
177;SDS011;77;48.792;9.032;2024-03-29T11:52:30;2.67;;;2.13;;
177;SDS011;77;48.792;9.032;2024-03-29T11:54:55;3.80;;;2.03;;
177;SDS011;77;48.792;9.032;2024-03-29T11:57:20;3.03;;;1.90;;
177;SDS011;77;48.792;9.032;2024-03-29T11:59:45;2.30;;;1.77;;
177;SDS011;77;48.792;9.032;2024-03-29T12:02:12;5.55;;;2.10;;
177;SDS011;77;48.792;9.032;2024-03-29T12:04:39;2.40;;;1.80;;
177;SDS011;77;48.792;9.032;2024-03-29T12:07:04;2.57;;;1.87;;
177;SDS011;77;48.792;9.032;2024-03-29T12:09:29;2.40;;;1.70;;
177;SDS011;77;48.792;9.032;2024-03-29T12:11:54;3.22;;;1.80;;
177;SDS011;77;48.792;9.032;2024-03-29T12:14:19;1.97;;;1.57;;
177;SDS011;77;48.792;9.032;2024-03-29T12:16:45;2.35;;;1.75;;
177;SDS011;77;48.792;9.032;2024-03-29T12:19:21;3.27;;;1.83;;
177;SDS011;77;48.792;9.032;2024-03-29T12:21:46;2.23;;;1.70;;
177;SDS011;77;48.792;9.032;2024-03-29T12:24:11;3.50;;;2.00;;
177;SDS011;77;48.792;9.032;2024-03-29T12:26:36;3.30;;;1.83;;
177;SDS011;77;48.792;9.032;2024-03-29T12:29:02;3.50;;;1.90;;
177;SDS011;77;48.792;9.032;2024-03-29T12:31:27;3.60;;;2.00;;
177;SDS011;77;48.792;9.032;2024-03-29T12:33:52;3.43;;;1.90;;
177;SDS011;77;48.792;9.032;2024-03-29T12:36:18;6.17;;;2.00;;
177;SDS011;77;48.792;9.032;2024-03-29T12:38:47;2.00;;;1.70;;
177;SDS011;77;48.792;9.032;2024-03-29T12:41:12;2.90;;;1.83;;
177;SDS011;77;48.792;9.032;2024-03-29T12:43:37;4.17;;;2.70;;
177;SDS011;77;48.792;9.032;2024-03-29T12:46:03;4.10;;;2.90;;
177;SDS011;77;48.792;9.032;2024-03-29T12:48:28;8.17;;;3.17;;
177;SDS011;77;48.792;9.032;2024-03-29T12:50:53;4.43;;;3.55;;
177;SDS011;77;48.792;9.032;2024-03-29T12:53:19;9.98;;;4.30;;
177;SDS011;77;48.792;9.032;2024-03-29T12:55:45;5.70;;;4.13;;
177;SDS011;77;48.792;9.032;2024-03-29T12:58:11;6.33;;;4.20;;
177;SDS011;77;48.792;9.032;2024-03-29T13:00:36;6.50;;;4.20;;
177;SDS011;77;48.792;9.032;2024-03-29T13:03:01;6.63;;;4.30;;
177;SDS011;77;48.792;9.032;2024-03-29T13:05:27;6.63;;;4.40;;
177;SDS011;77;48.792;9.032;2024-03-29T13:07:53;5.50;;;3.70;;
177;SDS011;77;48.792;9.032;2024-03-29T13:10:19;6.23;;;3.90;;
177;SDS011;77;48.792;9.032;2024-03-29T13:12:44;6.23;;;4.00;;
177;SDS011;77;48.792;9.032;2024-03-29T13:15:17;6.37;;;3.80;;
177;SDS011;77;48.792;9.032;2024-03-29T13:17:42;4.50;;;3.40;;
177;SDS011;77;48.792;9.032;2024-03-29T13:20:08;5.40;;;3.20;;
177;SDS011;77;48.792;9.032;2024-03-29T13:22:33;5.47;;;3.40;;
177;SDS011;77;48.792;9.032;2024-03-29T13:24:58;8.00;;;3.50;;
177;SDS011;77;48.792;9.032;2024-03-29T13:27:25;4.90;;;2.77;;
177;SDS011;77;48.792;9.032;2024-03-29T13:29:50;4.03;;;2.90;;
177;SDS011;77;48.792;9.032;2024-03-29T13:32:15;4.57;;;2.80;;
177;SDS011;77;48.792;9.032;2024-03-29T13:34:40;4.23;;;2.43;;
177;SDS011;77;48.792;9.032;2024-03-29T13:37:06;6.47;;;2.40;;
177;SDS011;77;48.792;9.032;2024-03-29T13:39:31;4.00;;;2.40;;
177;SDS011;77;48.792;9.032;2024-03-29T13:41:56;3.80;;;2.60;;
177;SDS011;77;48.792;9.032;2024-03-29T13:44:22;4.93;;;2.65;;
177;SDS011;77;48.792;9.032;2024-03-29T13:46:47;4.70;;;2.50;;
177;SDS011;77;48.792;9.032;2024-03-29T13:49:13;5.60;;;2.23;;
177;SDS011;77;48.792;9.032;2024-03-29T13:51:38;3.50;;;2.17;;
177;SDS011;77;48.792;9.032;2024-03-29T13:54:03;2.35;;;1.80;;
177;SDS011;77;48.792;9.032;2024-03-29T13:56:28;2.60;;;1.90;;
177;SDS011;77;48.792;9.032;2024-03-29T13:58:53;3.08;;;1.90;;
177;SDS011;77;48.792;9.032;2024-03-29T14:01:20;3.00;;;1.77;;
177;SDS011;77;48.792;9.032;2024-03-29T14:03:45;2.40;;;1.87;;
177;SDS011;77;48.792;9.032;2024-03-29T14:06:10;3.37;;;2.03;;
177;SDS011;77;48.792;9.032;2024-03-29T14:08:35;4.57;;;1.70;;
177;SDS011;77;48.792;9.032;2024-03-29T14:11:00;3.10;;;2.00;;
177;SDS011;77;48.792;9.032;2024-03-29T14:13:26;2.80;;;1.93;;
177;SDS011;77;48.792;9.032;2024-03-29T14:15:51;2.50;;;1.70;;
177;SDS011;77;48.792;9.032;2024-03-29T14:18:17;2.40;;;1.80;;
177;SDS011;77;48.792;9.032;2024-03-29T14:20:43;3.33;;;1.83;;
177;SDS011;77;48.792;9.032;2024-03-29T14:23:08;3.20;;;1.90;;
177;SDS011;77;48.792;9.032;2024-03-29T14:25:33;2.47;;;1.90;;
177;SDS011;77;48.792;9.032;2024-03-29T14:27:59;2.92;;;1.77;;
177;SDS011;77;48.792;9.032;2024-03-29T14:30:24;2.50;;;2.00;;
177;SDS011;77;48.792;9.032;2024-03-29T14:32:50;3.30;;;1.90;;
177;SDS011;77;48.792;9.032;2024-03-29T14:35:16;3.83;;;1.90;;
177;SDS011;77;48.792;9.032;2024-03-29T14:37:42;2.57;;;1.90;;
177;SDS011;77;48.792;9.032;2024-03-29T14:40:07;2.40;;;1.80;;
177;SDS011;77;48.792;9.032;2024-03-29T14:42:32;2.33;;;1.70;;
177;SDS011;77;48.792;9.032;2024-03-29T14:44:58;3.83;;;1.98;;
177;SDS011;77;48.792;9.032;2024-03-29T14:47:23;3.27;;;2.00;;
177;SDS011;77;48.792;9.032;2024-03-29T14:49:48;3.43;;;2.10;;
177;SDS011;77;48.792;9.032;2024-03-29T14:52:14;2.42;;;1.88;;
177;SDS011;77;48.792;9.032;2024-03-29T14:54:40;4.83;;;2.13;;
177;SDS011;77;48.792;9.032;2024-03-29T14:57:05;3.27;;;1.97;;
177;SDS011;77;48.792;9.032;2024-03-29T14:59:30;3.00;;;2.13;;
177;SDS011;77;48.792;9.032;2024-03-29T15:01:55;2.57;;;1.90;;
177;SDS011;77;48.792;9.032;2024-03-29T15:04:20;2.60;;;2.00;;
177;SDS011;77;48.792;9.032;2024-03-29T15:06:45;2.67;;;1.90;;
177;SDS011;77;48.792;9.032;2024-03-29T15:09:12;3.28;;;2.08;;
177;SDS011;77;48.792;9.032;2024-03-29T15:11:37;2.40;;;1.90;;
177;SDS011;77;48.792;9.032;2024-03-29T15:14:02;2.90;;;2.10;;
177;SDS011;77;48.792;9.032;2024-03-29T15:16:28;3.37;;;2.00;;
177;SDS011;77;48.792;9.032;2024-03-29T15:18:53;3.33;;;2.13;;
177;SDS011;77;48.792;9.032;2024-03-29T15:21:18;3.40;;;2.03;;
177;SDS011;77;48.792;9.032;2024-03-29T15:23:43;2.90;;;1.80;;
177;SDS011;77;48.792;9.032;2024-03-29T15:26:09;5.55;;;1.83;;
177;SDS011;77;48.792;9.032;2024-03-29T15:28:35;2.80;;;2.03;;
177;SDS011;77;48.792;9.032;2024-03-29T15:31:06;3.40;;;2.03;;
177;SDS011;77;48.792;9.032;2024-03-29T15:33:31;3.20;;;2.00;;
177;SDS011;77;48.792;9.032;2024-03-29T15:35:57;3.60;;;2.00;;
177;SDS011;77;48.792;9.032;2024-03-29T15:38:22;3.17;;;2.08;;
177;SDS011;77;48.792;9.032;2024-03-29T15:40:52;2.47;;;1.90;;
177;SDS011;77;48.792;9.032;2024-03-29T15:43:19;2.60;;;2.00;;
177;SDS011;77;48.792;9.032;2024-03-29T15:45:44;3.00;;;2.17;;
177;SDS011;77;48.792;9.032;2024-03-29T15:48:09;4.40;;;2.47;;
177;SDS011;77;48.792;9.032;2024-03-29T15:50:34;3.30;;;2.30;;